sensor_id;sensor_type;location;lat;lon;timestamp;temperature;humidity
15288;DHT22;7745;48.708;9.026;2022-10-16T00:02:11;14.80;99.90
15288;DHT22;7745;48.708;9.026;2022-10-16T00:04:38;14.80;99.90
15288;DHT22;7745;48.708;9.026;2022-10-16T00:07:05;14.80;99.90
15288;DHT22;7745;48.708;9.026;2022-10-16T00:09:31;14.80;99.90
15288;DHT22;7745;48.708;9.026;2022-10-16T00:11:59;14.70;99.90
15288;DHT22;7745;48.708;9.026;2022-10-16T00:14:26;14.70;99.90
15288;DHT22;7745;48.708;9.026;2022-10-16T00:16:53;14.70;99.90
15288;DHT22;7745;48.708;9.026;2022-10-16T00:19:20;14.60;99.90
15288;DHT22;7745;48.708;9.026;2022-10-16T00:21:46;14.60;99.90
15288;DHT22;7745;48.708;9.026;2022-10-16T00:24:13;14.50;99.90
15288;DHT22;7745;48.708;9.026;2022-10-16T00:26:40;14.50;99.90
15288;DHT22;7745;48.708;9.026;2022-10-16T00:29:08;14.40;99.90
15288;DHT22;7745;48.708;9.026;2022-10-16T00:31:35;14.40;99.90
15288;DHT22;7745;48.708;9.026;2022-10-16T00:34:02;14.40;99.90
15288;DHT22;7745;48.708;9.026;2022-10-16T00:36:29;14.30;99.90
15288;DHT22;7745;48.708;9.026;2022-10-16T00:38:57;14.30;99.90
15288;DHT22;7745;48.708;9.026;2022-10-16T00:41:25;14.30;99.90
15288;DHT22;7745;48.708;9.026;2022-10-16T00:43:53;14.20;99.90
15288;DHT22;7745;48.708;9.026;2022-10-16T00:46:24;14.20;99.90
15288;DHT22;7745;48.708;9.026;2022-10-16T00:48:55;14.20;99.90
15288;DHT22;7745;48.708;9.026;2022-10-16T00:51:27;14.30;99.90
15288;DHT22;7745;48.708;9.026;2022-10-16T00:53:55;14.30;99.90
15288;DHT22;7745;48.708;9.026;2022-10-16T00:56:22;14.40;99.90
15288;DHT22;7745;48.708;9.026;2022-10-16T00:58:49;14.40;99.90
15288;DHT22;7745;48.708;9.026;2022-10-16T01:01:16;14.40;99.90
15288;DHT22;7745;48.708;9.026;2022-10-16T01:03:44;14.40;99.90
15288;DHT22;7745;48.708;9.026;2022-10-16T01:06:21;14.40;99.90
15288;DHT22;7745;48.708;9.026;2022-10-16T01:08:59;14.40;99.90
15288;DHT22;7745;48.708;9.026;2022-10-16T01:11:33;14.50;99.90
15288;DHT22;7745;48.708;9.026;2022-10-16T01:14:02;14.40;99.90
15288;DHT22;7745;48.708;9.026;2022-10-16T01:16:37;14.40;99.90
15288;DHT22;7745;48.708;9.026;2022-10-16T01:19:12;14.40;99.90
15288;DHT22;7745;48.708;9.026;2022-10-16T01:21:42;14.40;99.90
15288;DHT22;7745;48.708;9.026;2022-10-16T01:24:17;14.30;99.90
15288;DHT22;7745;48.708;9.026;2022-10-16T01:27:06;14.20;99.90
15288;DHT22;7745;48.708;9.026;2022-10-16T01:29:37;14.20;99.90
15288;DHT22;7745;48.708;9.026;2022-10-16T01:32:10;14.20;99.90
15288;DHT22;7745;48.708;9.026;2022-10-16T01:34:43;14.20;99.90
15288;DHT22;7745;48.708;9.026;2022-10-16T01:37:20;14.20;99.90
15288;DHT22;7745;48.708;9.026;2022-10-16T01:39:49;14.20;99.90
15288;DHT22;7745;48.708;9.026;2022-10-16T01:42:21;14.20;99.90
15288;DHT22;7745;48.708;9.026;2022-10-16T01:44:49;14.20;99.90
15288;DHT22;7745;48.708;9.026;2022-10-16T01:47:19;14.20;99.90
15288;DHT22;7745;48.708;9.026;2022-10-16T01:49:48;14.30;99.90
15288;DHT22;7745;48.708;9.026;2022-10-16T01:52:18;14.30;99.90
15288;DHT22;7745;48.708;9.026;2022-10-16T01:54:50;14.30;99.90
15288;DHT22;7745;48.708;9.026;2022-10-16T01:57:20;14.30;99.90
15288;DHT22;7745;48.708;9.026;2022-10-16T01:59:50;14.30;99.90
15288;DHT22;7745;48.708;9.026;2022-10-16T02:02:19;14.30;99.90
15288;DHT22;7745;48.708;9.026;2022-10-16T02:04:49;14.30;99.90
15288;DHT22;7745;48.708;9.026;2022-10-16T02:07:18;14.30;99.90
15288;DHT22;7745;48.708;9.026;2022-10-16T02:09:45;14.40;99.90
15288;DHT22;7745;48.708;9.026;2022-10-16T02:12:15;14.40;99.90
15288;DHT22;7745;48.708;9.026;2022-10-16T02:14:47;14.40;99.90
15288;DHT22;7745;48.708;9.026;2022-10-16T02:17:16;14.40;99.90
15288;DHT22;7745;48.708;9.026;2022-10-16T02:19:44;14.40;99.90
15288;DHT22;7745;48.708;9.026;2022-10-16T02:22:16;14.60;99.90
15288;DHT22;7745;48.708;9.026;2022-10-16T02:24:50;14.50;99.90
15288;DHT22;7745;48.708;9.026;2022-10-16T02:27:23;14.60;99.90
15288;DHT22;7745;48.708;9.026;2022-10-16T02:29:56;14.50;99.90
15288;DHT22;7745;48.708;9.026;2022-10-16T02:32:30;14.50;99.90
15288;DHT22;7745;48.708;9.026;2022-10-16T02:34:58;14.50;99.90
15288;DHT22;7745;48.708;9.026;2022-10-16T02:37:26;14.50;99.90
15288;DHT22;7745;48.708;9.026;2022-10-16T02:39:54;14.50;99.90
15288;DHT22;7745;48.708;9.026;2022-10-16T02:42:27;14.50;99.90
15288;DHT22;7745;48.708;9.026;2022-10-16T02:44:56;14.50;99.90
15288;DHT22;7745;48.708;9.026;2022-10-16T02:47:22;14.60;99.90
15288;DHT22;7745;48.708;9.026;2022-10-16T02:49:49;14.50;99.90
15288;DHT22;7745;48.708;9.026;2022-10-16T02:52:16;14.50;99.90
15288;DHT22;7745;48.708;9.026;2022-10-16T02:54:43;14.50;99.90
15288;DHT22;7745;48.708;9.026;2022-10-16T02:57:09;14.50;99.90
15288;DHT22;7745;48.708;9.026;2022-10-16T02:59:37;14.50;99.90
15288;DHT22;7745;48.708;9.026;2022-10-16T03:02:05;14.50;99.90
15288;DHT22;7745;48.708;9.026;2022-10-16T03:04:32;14.50;99.90
15288;DHT22;7745;48.708;9.026;2022-10-16T03:06:58;14.50;99.90
15288;DHT22;7745;48.708;9.026;2022-10-16T03:09:25;14.40;99.90
15288;DHT22;7745;48.708;9.026;2022-10-16T03:11:52;14.40;99.90
15288;DHT22;7745;48.708;9.026;2022-10-16T03:14:19;14.40;99.90
15288;DHT22;7745;48.708;9.026;2022-10-16T03:16:45;14.30;99.90
15288;DHT22;7745;48.708;9.026;2022-10-16T03:19:15;14.50;99.90
15288;DHT22;7745;48.708;9.026;2022-10-16T03:21:42;14.30;99.90
15288;DHT22;7745;48.708;9.026;2022-10-16T03:24:09;14.30;99.90
15288;DHT22;7745;48.708;9.026;2022-10-16T03:26:36;14.30;99.90
15288;DHT22;7745;48.708;9.026;2022-10-16T03:29:03;14.30;99.90
15288;DHT22;7745;48.708;9.026;2022-10-16T03:31:30;14.30;99.90
15288;DHT22;7745;48.708;9.026;2022-10-16T03:33:57;14.30;99.90
15288;DHT22;7745;48.708;9.026;2022-10-16T03:36:25;14.30;99.90
15288;DHT22;7745;48.708;9.026;2022-10-16T03:38:52;14.30;99.90
15288;DHT22;7745;48.708;9.026;2022-10-16T03:41:19;14.20;99.90
15288;DHT22;7745;48.708;9.026;2022-10-16T03:43:46;14.20;99.90
15288;DHT22;7745;48.708;9.026;2022-10-16T03:46:12;14.30;99.90
15288;DHT22;7745;48.708;9.026;2022-10-16T03:48:39;14.20;99.90
15288;DHT22;7745;48.708;9.026;2022-10-16T03:51:06;14.20;99.90
15288;DHT22;7745;48.708;9.026;2022-10-16T03:53:34;14.20;99.90
15288;DHT22;7745;48.708;9.026;2022-10-16T03:56:01;14.10;99.90
15288;DHT22;7745;48.708;9.026;2022-10-16T03:58:28;14.10;99.90
15288;DHT22;7745;48.708;9.026;2022-10-16T04:00:54;14.10;99.90
15288;DHT22;7745;48.708;9.026;2022-10-16T04:03:21;14.10;99.90
15288;DHT22;7745;48.708;9.026;2022-10-16T04:05:48;14.00;99.90
15288;DHT22;7745;48.708;9.026;2022-10-16T04:08:15;14.00;99.90
15288;DHT22;7745;48.708;9.026;2022-10-16T04:10:44;14.00;99.90
15288;DHT22;7745;48.708;9.026;2022-10-16T04:13:11;14.00;99.90
15288;DHT22;7745;48.708;9.026;2022-10-16T04:15:37;13.90;99.90
15288;DHT22;7745;48.708;9.026;2022-10-16T04:18:05;13.90;99.90
15288;DHT22;7745;48.708;9.026;2022-10-16T04:20:32;13.90;99.90
15288;DHT22;7745;48.708;9.026;2022-10-16T04:22:58;13.90;99.90
15288;DHT22;7745;48.708;9.026;2022-10-16T04:25:25;14.00;99.90
15288;DHT22;7745;48.708;9.026;2022-10-16T04:27:54;13.90;99.90
15288;DHT22;7745;48.708;9.026;2022-10-16T04:30:22;13.90;99.90
15288;DHT22;7745;48.708;9.026;2022-10-16T04:32:49;13.90;99.90
15288;DHT22;7745;48.708;9.026;2022-10-16T04:35:16;13.90;99.90
15288;DHT22;7745;48.708;9.026;2022-10-16T04:37:42;13.90;99.90
15288;DHT22;7745;48.708;9.026;2022-10-16T04:40:10;13.90;99.90
15288;DHT22;7745;48.708;9.026;2022-10-16T04:42:37;13.90;99.90
15288;DHT22;7745;48.708;9.026;2022-10-16T04:45:06;13.90;99.90
15288;DHT22;7745;48.708;9.026;2022-10-16T04:47:34;13.90;99.90
15288;DHT22;7745;48.708;9.026;2022-10-16T04:50:00;13.90;99.90
15288;DHT22;7745;48.708;9.026;2022-10-16T04:52:28;13.80;99.90
15288;DHT22;7745;48.708;9.026;2022-10-16T04:54:57;13.80;99.90
15288;DHT22;7745;48.708;9.026;2022-10-16T04:57:26;13.90;99.90
15288;DHT22;7745;48.708;9.026;2022-10-16T04:59:53;13.80;99.90
15288;DHT22;7745;48.708;9.026;2022-10-16T05:02:21;13.80;99.90
15288;DHT22;7745;48.708;9.026;2022-10-16T05:04:48;13.80;99.90
15288;DHT22;7745;48.708;9.026;2022-10-16T05:07:15;13.80;99.90
15288;DHT22;7745;48.708;9.026;2022-10-16T05:09:41;13.80;99.90
15288;DHT22;7745;48.708;9.026;2022-10-16T05:12:08;13.80;99.90
15288;DHT22;7745;48.708;9.026;2022-10-16T05:14:35;14.00;99.90
15288;DHT22;7745;48.708;9.026;2022-10-16T05:17:02;13.80;99.90
15288;DHT22;7745;48.708;9.026;2022-10-16T05:19:30;13.80;99.90
15288;DHT22;7745;48.708;9.026;2022-10-16T05:21:57;13.80;99.90
15288;DHT22;7745;48.708;9.026;2022-10-16T05:24:24;13.90;99.90
15288;DHT22;7745;48.708;9.026;2022-10-16T05:26:51;13.80;99.90
15288;DHT22;7745;48.708;9.026;2022-10-16T05:29:18;13.70;99.90
15288;DHT22;7745;48.708;9.026;2022-10-16T05:31:45;13.70;99.90
15288;DHT22;7745;48.708;9.026;2022-10-16T05:34:11;13.70;99.90
15288;DHT22;7745;48.708;9.026;2022-10-16T05:36:40;13.60;99.90
15288;DHT22;7745;48.708;9.026;2022-10-16T05:39:06;13.60;99.90
15288;DHT22;7745;48.708;9.026;2022-10-16T05:41:33;13.60;99.90
15288;DHT22;7745;48.708;9.026;2022-10-16T05:44:00;13.60;99.90
15288;DHT22;7745;48.708;9.026;2022-10-16T05:46:30;13.50;99.90
15288;DHT22;7745;48.708;9.026;2022-10-16T05:48:56;13.50;99.90
15288;DHT22;7745;48.708;9.026;2022-10-16T05:51:23;13.60;99.90
15288;DHT22;7745;48.708;9.026;2022-10-16T05:53:52;13.50;99.90
15288;DHT22;7745;48.708;9.026;2022-10-16T05:56:19;13.60;99.90
15288;DHT22;7745;48.708;9.026;2022-10-16T05:58:46;13.60;99.90
15288;DHT22;7745;48.708;9.026;2022-10-16T06:01:14;13.60;99.90
15288;DHT22;7745;48.708;9.026;2022-10-16T06:03:42;13.60;99.90
15288;DHT22;7745;48.708;9.026;2022-10-16T06:06:10;13.70;99.90
15288;DHT22;7745;48.708;9.026;2022-10-16T06:08:37;13.70;99.90
15288;DHT22;7745;48.708;9.026;2022-10-16T06:11:07;13.80;99.90
15288;DHT22;7745;48.708;9.026;2022-10-16T06:13:34;13.80;99.90
15288;DHT22;7745;48.708;9.026;2022-10-16T06:16:03;13.90;99.90
15288;DHT22;7745;48.708;9.026;2022-10-16T06:18:30;13.90;99.90
15288;DHT22;7745;48.708;9.026;2022-10-16T06:20:57;13.90;99.90
15288;DHT22;7745;48.708;9.026;2022-10-16T06:23:24;13.90;99.90
15288;DHT22;7745;48.708;9.026;2022-10-16T06:25:51;14.00;99.90
15288;DHT22;7745;48.708;9.026;2022-10-16T06:28:20;14.00;99.90
15288;DHT22;7745;48.708;9.026;2022-10-16T06:30:46;14.10;99.90
15288;DHT22;7745;48.708;9.026;2022-10-16T06:33:13;14.10;99.90
15288;DHT22;7745;48.708;9.026;2022-10-16T06:35:40;14.10;99.90
15288;DHT22;7745;48.708;9.026;2022-10-16T06:38:07;14.20;99.90
15288;DHT22;7745;48.708;9.026;2022-10-16T06:40:34;14.20;99.90
15288;DHT22;7745;48.708;9.026;2022-10-16T06:43:00;14.20;99.90
15288;DHT22;7745;48.708;9.026;2022-10-16T06:45:29;14.30;99.90
15288;DHT22;7745;48.708;9.026;2022-10-16T06:47:55;14.40;99.90
15288;DHT22;7745;48.708;9.026;2022-10-16T06:50:22;14.40;99.90
15288;DHT22;7745;48.708;9.026;2022-10-16T06:52:49;14.50;99.90
15288;DHT22;7745;48.708;9.026;2022-10-16T06:55:16;14.60;99.90
15288;DHT22;7745;48.708;9.026;2022-10-16T06:57:47;14.70;99.90
15288;DHT22;7745;48.708;9.026;2022-10-16T07:00:14;14.90;99.90
15288;DHT22;7745;48.708;9.026;2022-10-16T07:02:42;14.80;99.90
15288;DHT22;7745;48.708;9.026;2022-10-16T07:05:09;14.90;99.90
15288;DHT22;7745;48.708;9.026;2022-10-16T07:07:35;15.20;99.90
15288;DHT22;7745;48.708;9.026;2022-10-16T07:10:03;15.00;99.90
15288;DHT22;7745;48.708;9.026;2022-10-16T07:12:29;15.10;99.90
15288;DHT22;7745;48.708;9.026;2022-10-16T07:14:57;15.10;99.90
15288;DHT22;7745;48.708;9.026;2022-10-16T07:17:23;15.20;99.90
15288;DHT22;7745;48.708;9.026;2022-10-16T07:19:51;15.20;99.90
15288;DHT22;7745;48.708;9.026;2022-10-16T07:22:18;15.40;99.90
15288;DHT22;7745;48.708;9.026;2022-10-16T07:24:45;15.20;99.90
15288;DHT22;7745;48.708;9.026;2022-10-16T07:27:12;15.20;99.90
15288;DHT22;7745;48.708;9.026;2022-10-16T07:29:41;15.20;99.90
15288;DHT22;7745;48.708;9.026;2022-10-16T07:32:07;15.20;99.90
15288;DHT22;7745;48.708;9.026;2022-10-16T07:34:34;15.30;99.90
15288;DHT22;7745;48.708;9.026;2022-10-16T07:37:02;15.30;99.90
15288;DHT22;7745;48.708;9.026;2022-10-16T07:39:29;15.40;99.90
15288;DHT22;7745;48.708;9.026;2022-10-16T07:41:56;15.50;99.90
15288;DHT22;7745;48.708;9.026;2022-10-16T07:44:22;15.50;99.90
15288;DHT22;7745;48.708;9.026;2022-10-16T07:46:49;15.60;99.90
15288;DHT22;7745;48.708;9.026;2022-10-16T07:49:16;15.60;99.90
15288;DHT22;7745;48.708;9.026;2022-10-16T07:51:43;15.60;99.90
15288;DHT22;7745;48.708;9.026;2022-10-16T07:54:11;15.60;99.90
15288;DHT22;7745;48.708;9.026;2022-10-16T07:56:38;15.70;99.90
15288;DHT22;7745;48.708;9.026;2022-10-16T07:59:04;15.80;99.90
15288;DHT22;7745;48.708;9.026;2022-10-16T08:01:31;15.90;99.90
15288;DHT22;7745;48.708;9.026;2022-10-16T08:03:58;16.00;99.90
15288;DHT22;7745;48.708;9.026;2022-10-16T08:06:25;16.00;99.90
15288;DHT22;7745;48.708;9.026;2022-10-16T08:08:52;16.10;99.90
15288;DHT22;7745;48.708;9.026;2022-10-16T08:11:20;16.10;99.90
15288;DHT22;7745;48.708;9.026;2022-10-16T08:13:47;16.40;99.90
15288;DHT22;7745;48.708;9.026;2022-10-16T08:16:14;16.20;99.90
15288;DHT22;7745;48.708;9.026;2022-10-16T08:18:41;16.30;99.90
15288;DHT22;7745;48.708;9.026;2022-10-16T08:21:13;16.40;99.90
15288;DHT22;7745;48.708;9.026;2022-10-16T08:23:41;16.50;99.90
15288;DHT22;7745;48.708;9.026;2022-10-16T08:26:08;16.60;99.90
15288;DHT22;7745;48.708;9.026;2022-10-16T08:28:36;16.60;99.90
15288;DHT22;7745;48.708;9.026;2022-10-16T08:31:08;16.90;99.90
15288;DHT22;7745;48.708;9.026;2022-10-16T08:33:36;16.80;99.90
15288;DHT22;7745;48.708;9.026;2022-10-16T08:36:04;16.80;99.90
15288;DHT22;7745;48.708;9.026;2022-10-16T08:38:31;16.80;99.90
15288;DHT22;7745;48.708;9.026;2022-10-16T08:41:09;16.80;99.90
15288;DHT22;7745;48.708;9.026;2022-10-16T08:43:54;16.90;99.90
15288;DHT22;7745;48.708;9.026;2022-10-16T08:46:35;16.90;99.90
15288;DHT22;7745;48.708;9.026;2022-10-16T08:49:09;16.80;99.90
15288;DHT22;7745;48.708;9.026;2022-10-16T08:51:37;17.00;99.90
15288;DHT22;7745;48.708;9.026;2022-10-16T08:54:06;16.90;99.90
15288;DHT22;7745;48.708;9.026;2022-10-16T08:56:34;17.00;99.90
15288;DHT22;7745;48.708;9.026;2022-10-16T08:59:10;17.10;99.90
15288;DHT22;7745;48.708;9.026;2022-10-16T09:04:39;17.30;99.90
15288;DHT22;7745;48.708;9.026;2022-10-16T09:07:18;17.40;99.90
15288;DHT22;7745;48.708;9.026;2022-10-16T09:10:00;17.50;99.90
15288;DHT22;7745;48.708;9.026;2022-10-16T09:12:37;17.50;99.90
15288;DHT22;7745;48.708;9.026;2022-10-16T09:15:16;17.80;99.90
15288;DHT22;7745;48.708;9.026;2022-10-16T09:17:52;17.80;99.90
15288;DHT22;7745;48.708;9.026;2022-10-16T09:20:28;17.90;99.90
15288;DHT22;7745;48.708;9.026;2022-10-16T09:23:09;18.00;99.90
15288;DHT22;7745;48.708;9.026;2022-10-16T09:25:38;18.20;99.90
15288;DHT22;7745;48.708;9.026;2022-10-16T09:28:07;18.50;99.90
15288;DHT22;7745;48.708;9.026;2022-10-16T09:33:53;18.50;99.90
15288;DHT22;7745;48.708;9.026;2022-10-16T09:36:22;18.50;99.90
15288;DHT22;7745;48.708;9.026;2022-10-16T09:39:02;18.50;99.90
15288;DHT22;7745;48.708;9.026;2022-10-16T09:41:29;18.40;99.90
15288;DHT22;7745;48.708;9.026;2022-10-16T09:43:57;18.40;99.90
15288;DHT22;7745;48.708;9.026;2022-10-16T09:46:27;18.40;99.90
15288;DHT22;7745;48.708;9.026;2022-10-16T09:48:57;18.50;99.90
15288;DHT22;7745;48.708;9.026;2022-10-16T09:51:26;18.60;99.90
15288;DHT22;7745;48.708;9.026;2022-10-16T09:54:17;18.70;99.90
15288;DHT22;7745;48.708;9.026;2022-10-16T09:59:59;19.00;99.90
15288;DHT22;7745;48.708;9.026;2022-10-16T10:02:29;19.20;99.90
15288;DHT22;7745;48.708;9.026;2022-10-16T10:04:58;19.20;99.90
15288;DHT22;7745;48.708;9.026;2022-10-16T10:07:26;19.50;99.90
15288;DHT22;7745;48.708;9.026;2022-10-16T10:09:55;19.60;99.90
15288;DHT22;7745;48.708;9.026;2022-10-16T10:12:24;19.70;99.90
15288;DHT22;7745;48.708;9.026;2022-10-16T10:14:53;19.70;99.90
15288;DHT22;7745;48.708;9.026;2022-10-16T10:17:22;20.00;99.90
15288;DHT22;7745;48.708;9.026;2022-10-16T10:19:52;20.00;99.90
15288;DHT22;7745;48.708;9.026;2022-10-16T10:22:29;20.10;99.90
15288;DHT22;7745;48.708;9.026;2022-10-16T10:25:20;20.10;99.90
15288;DHT22;7745;48.708;9.026;2022-10-16T10:28:00;20.10;99.90
15288;DHT22;7745;48.708;9.026;2022-10-16T10:30:37;20.30;99.90
15288;DHT22;7745;48.708;9.026;2022-10-16T10:33:18;20.20;99.90
15288;DHT22;7745;48.708;9.026;2022-10-16T10:35:54;20.40;99.90
15288;DHT22;7745;48.708;9.026;2022-10-16T10:38:31;20.40;99.90
15288;DHT22;7745;48.708;9.026;2022-10-16T10:41:09;20.40;99.90
15288;DHT22;7745;48.708;9.026;2022-10-16T10:43:52;20.40;99.90
15288;DHT22;7745;48.708;9.026;2022-10-16T10:46:32;20.40;99.90
15288;DHT22;7745;48.708;9.026;2022-10-16T10:49:16;20.40;99.90
15288;DHT22;7745;48.708;9.026;2022-10-16T10:51:54;20.40;99.90
15288;DHT22;7745;48.708;9.026;2022-10-16T10:54:30;20.40;99.90
15288;DHT22;7745;48.708;9.026;2022-10-16T10:57:02;20.50;99.90
15288;DHT22;7745;48.708;9.026;2022-10-16T10:59:50;20.40;99.90
15288;DHT22;7745;48.708;9.026;2022-10-16T11:02:23;20.50;99.90
15288;DHT22;7745;48.708;9.026;2022-10-16T11:07:57;20.60;99.90
15288;DHT22;7745;48.708;9.026;2022-10-16T11:10:29;20.50;99.90
15288;DHT22;7745;48.708;9.026;2022-10-16T11:13:10;20.40;99.90
15288;DHT22;7745;48.708;9.026;2022-10-16T11:15:41;20.40;99.90
15288;DHT22;7745;48.708;9.026;2022-10-16T11:18:16;20.40;99.90
15288;DHT22;7745;48.708;9.026;2022-10-16T11:20:49;20.40;99.90
15288;DHT22;7745;48.708;9.026;2022-10-16T11:23:22;20.40;99.90
15288;DHT22;7745;48.708;9.026;2022-10-16T11:25:52;20.50;99.90
15288;DHT22;7745;48.708;9.026;2022-10-16T11:28:23;20.50;99.90
15288;DHT22;7745;48.708;9.026;2022-10-16T11:30:57;20.50;99.90
15288;DHT22;7745;48.708;9.026;2022-10-16T11:33:30;20.60;99.90
15288;DHT22;7745;48.708;9.026;2022-10-16T11:36:06;20.70;99.90
15288;DHT22;7745;48.708;9.026;2022-10-16T11:38:42;20.60;99.90
15288;DHT22;7745;48.708;9.026;2022-10-16T11:41:18;20.60;99.90
15288;DHT22;7745;48.708;9.026;2022-10-16T11:43:52;20.70;99.90
15288;DHT22;7745;48.708;9.026;2022-10-16T11:46:24;20.60;99.90
15288;DHT22;7745;48.708;9.026;2022-10-16T11:48:55;20.70;99.90
15288;DHT22;7745;48.708;9.026;2022-10-16T11:51:31;20.80;99.90
15288;DHT22;7745;48.708;9.026;2022-10-16T11:54:02;20.80;99.90
15288;DHT22;7745;48.708;9.026;2022-10-16T11:56:37;20.80;99.90
15288;DHT22;7745;48.708;9.026;2022-10-16T11:59:11;20.90;99.90
15288;DHT22;7745;48.708;9.026;2022-10-16T12:01:44;21.00;99.90
15288;DHT22;7745;48.708;9.026;2022-10-16T12:04:20;21.10;99.90
15288;DHT22;7745;48.708;9.026;2022-10-16T12:06:54;21.10;99.90
15288;DHT22;7745;48.708;9.026;2022-10-16T12:09:26;21.10;99.90
15288;DHT22;7745;48.708;9.026;2022-10-16T12:11:56;21.30;99.90
15288;DHT22;7745;48.708;9.026;2022-10-16T12:14:37;21.40;99.90
15288;DHT22;7745;48.708;9.026;2022-10-16T12:17:25;21.50;99.90
15288;DHT22;7745;48.708;9.026;2022-10-16T12:19:59;21.60;99.90
15288;DHT22;7745;48.708;9.026;2022-10-16T12:22:29;21.70;99.90
15288;DHT22;7745;48.708;9.026;2022-10-16T12:24:58;21.80;99.90
15288;DHT22;7745;48.708;9.026;2022-10-16T12:27:31;21.90;99.90
15288;DHT22;7745;48.708;9.026;2022-10-16T12:30:06;21.90;99.90
15288;DHT22;7745;48.708;9.026;2022-10-16T12:32:38;21.90;99.90
15288;DHT22;7745;48.708;9.026;2022-10-16T12:35:18;21.80;99.90
15288;DHT22;7745;48.708;9.026;2022-10-16T12:37:45;21.90;99.90
15288;DHT22;7745;48.708;9.026;2022-10-16T12:40:14;21.90;99.90
15288;DHT22;7745;48.708;9.026;2022-10-16T12:42:43;21.90;99.90
15288;DHT22;7745;48.708;9.026;2022-10-16T12:45:28;21.80;99.90
15288;DHT22;7745;48.708;9.026;2022-10-16T12:47:56;21.70;99.90
15288;DHT22;7745;48.708;9.026;2022-10-16T12:50:32;21.70;99.90
15288;DHT22;7745;48.708;9.026;2022-10-16T12:53:03;21.70;99.90
15288;DHT22;7745;48.708;9.026;2022-10-16T12:55:44;21.60;99.90
15288;DHT22;7745;48.708;9.026;2022-10-16T12:58:28;21.60;99.90
15288;DHT22;7745;48.708;9.026;2022-10-16T13:01:07;21.50;99.90
15288;DHT22;7745;48.708;9.026;2022-10-16T13:03:59;21.50;99.90
15288;DHT22;7745;48.708;9.026;2022-10-16T13:06:37;21.40;99.90
15288;DHT22;7745;48.708;9.026;2022-10-16T13:09:20;21.50;99.90
15288;DHT22;7745;48.708;9.026;2022-10-16T13:12:08;21.50;99.90
15288;DHT22;7745;48.708;9.026;2022-10-16T13:15:12;21.50;99.90
15288;DHT22;7745;48.708;9.026;2022-10-16T13:17:50;21.50;99.90
15288;DHT22;7745;48.708;9.026;2022-10-16T13:20:28;21.50;99.90
15288;DHT22;7745;48.708;9.026;2022-10-16T13:23:05;21.60;99.90
15288;DHT22;7745;48.708;9.026;2022-10-16T13:25:43;21.60;99.90
15288;DHT22;7745;48.708;9.026;2022-10-16T13:28:13;21.70;99.90
15288;DHT22;7745;48.708;9.026;2022-10-16T13:30:44;21.60;99.90
15288;DHT22;7745;48.708;9.026;2022-10-16T13:33:15;21.80;99.90
15288;DHT22;7745;48.708;9.026;2022-10-16T13:35:49;21.90;99.90
15288;DHT22;7745;48.708;9.026;2022-10-16T13:38:21;21.90;99.90
15288;DHT22;7745;48.708;9.026;2022-10-16T13:40:50;21.90;99.90
15288;DHT22;7745;48.708;9.026;2022-10-16T13:43:19;21.90;99.90
15288;DHT22;7745;48.708;9.026;2022-10-16T13:45:56;21.90;99.90
15288;DHT22;7745;48.708;9.026;2022-10-16T13:48:24;21.80;99.90
15288;DHT22;7745;48.708;9.026;2022-10-16T13:51:03;21.70;99.90
15288;DHT22;7745;48.708;9.026;2022-10-16T13:53:35;21.70;99.90
15288;DHT22;7745;48.708;9.026;2022-10-16T13:56:12;21.60;99.90
15288;DHT22;7745;48.708;9.026;2022-10-16T13:58:44;21.50;99.90
15288;DHT22;7745;48.708;9.026;2022-10-16T14:01:22;21.40;99.90
15288;DHT22;7745;48.708;9.026;2022-10-16T14:04:07;21.50;99.90
15288;DHT22;7745;48.708;9.026;2022-10-16T14:06:48;21.50;99.90
15288;DHT22;7745;48.708;9.026;2022-10-16T14:09:26;21.50;99.90
15288;DHT22;7745;48.708;9.026;2022-10-16T14:12:10;21.50;99.90
15288;DHT22;7745;48.708;9.026;2022-10-16T14:14:52;21.50;99.90
15288;DHT22;7745;48.708;9.026;2022-10-16T14:17:34;21.50;99.90
15288;DHT22;7745;48.708;9.026;2022-10-16T14:20:20;21.60;99.90
15288;DHT22;7745;48.708;9.026;2022-10-16T14:23:18;21.50;99.90
15288;DHT22;7745;48.708;9.026;2022-10-16T14:25:51;21.50;99.90
15288;DHT22;7745;48.708;9.026;2022-10-16T14:28:23;21.60;99.90
15288;DHT22;7745;48.708;9.026;2022-10-16T14:30:53;21.40;99.90
15288;DHT22;7745;48.708;9.026;2022-10-16T14:33:24;21.40;99.90
15288;DHT22;7745;48.708;9.026;2022-10-16T14:36:03;21.40;99.90
15288;DHT22;7745;48.708;9.026;2022-10-16T14:38:31;21.30;99.90
15288;DHT22;7745;48.708;9.026;2022-10-16T14:40:59;21.40;99.90
15288;DHT22;7745;48.708;9.026;2022-10-16T14:43:32;21.40;99.90
15288;DHT22;7745;48.708;9.026;2022-10-16T14:46:02;21.40;99.90
15288;DHT22;7745;48.708;9.026;2022-10-16T14:48:32;21.50;99.90
15288;DHT22;7745;48.708;9.026;2022-10-16T14:50:59;21.30;99.90
15288;DHT22;7745;48.708;9.026;2022-10-16T14:53:26;21.30;99.90
15288;DHT22;7745;48.708;9.026;2022-10-16T14:55:53;21.30;99.90
15288;DHT22;7745;48.708;9.026;2022-10-16T14:58:22;21.30;99.90
15288;DHT22;7745;48.708;9.026;2022-10-16T15:00:50;21.30;99.90
15288;DHT22;7745;48.708;9.026;2022-10-16T15:03:17;21.20;99.90
15288;DHT22;7745;48.708;9.026;2022-10-16T15:05:46;21.00;99.90
15288;DHT22;7745;48.708;9.026;2022-10-16T15:08:15;21.10;99.90
15288;DHT22;7745;48.708;9.026;2022-10-16T15:10:43;21.00;99.90
15288;DHT22;7745;48.708;9.026;2022-10-16T15:13:12;20.90;99.90
15288;DHT22;7745;48.708;9.026;2022-10-16T15:15:46;20.80;99.90
15288;DHT22;7745;48.708;9.026;2022-10-16T15:18:14;20.70;99.90
15288;DHT22;7745;48.708;9.026;2022-10-16T15:20:48;20.70;99.90
15288;DHT22;7745;48.708;9.026;2022-10-16T15:23:16;20.60;99.90
15288;DHT22;7745;48.708;9.026;2022-10-16T15:25:45;20.60;99.90
15288;DHT22;7745;48.708;9.026;2022-10-16T15:28:14;20.50;99.90
15288;DHT22;7745;48.708;9.026;2022-10-16T15:30:42;20.40;99.90
15288;DHT22;7745;48.708;9.026;2022-10-16T15:33:13;20.40;99.90
15288;DHT22;7745;48.708;9.026;2022-10-16T15:35:41;20.30;99.90
15288;DHT22;7745;48.708;9.026;2022-10-16T15:38:12;20.30;99.90
15288;DHT22;7745;48.708;9.026;2022-10-16T15:40:39;20.20;99.90
15288;DHT22;7745;48.708;9.026;2022-10-16T15:43:07;20.20;99.90
15288;DHT22;7745;48.708;9.026;2022-10-16T15:45:34;20.00;99.90
15288;DHT22;7745;48.708;9.026;2022-10-16T15:48:01;20.20;99.90
15288;DHT22;7745;48.708;9.026;2022-10-16T15:50:33;20.00;99.90
15288;DHT22;7745;48.708;9.026;2022-10-16T15:53:00;19.90;99.90
15288;DHT22;7745;48.708;9.026;2022-10-16T15:55:31;19.80;99.90
15288;DHT22;7745;48.708;9.026;2022-10-16T15:58:01;19.60;99.90
15288;DHT22;7745;48.708;9.026;2022-10-16T16:00:29;19.70;99.90
15288;DHT22;7745;48.708;9.026;2022-10-16T16:02:56;19.60;99.90
15288;DHT22;7745;48.708;9.026;2022-10-16T16:05:25;19.50;99.90
15288;DHT22;7745;48.708;9.026;2022-10-16T16:07:56;19.40;99.90
15288;DHT22;7745;48.708;9.026;2022-10-16T16:10:25;19.30;99.90
15288;DHT22;7745;48.708;9.026;2022-10-16T16:12:54;19.20;99.90
15288;DHT22;7745;48.708;9.026;2022-10-16T16:15:22;19.10;99.90
15288;DHT22;7745;48.708;9.026;2022-10-16T16:17:49;19.10;99.90
15288;DHT22;7745;48.708;9.026;2022-10-16T16:20:16;18.90;99.90